City by the Sea, Texas
Current Conditions -  °F | °C
As of 7:15 PM on Saturday 22 Nov 2014 (Local Time) from KTFP Reporting Station
Clear Clear  
Wind Chill: 69°   Ceiling: Unl
Heat Index: 69°   Visibility: 7mi
Dew Point: 66°   Wind: 5mph
Humidity: 92%   Direction: 190°S
Pressure: 29.79"   Gusts: NA
Location:  27.9399°N, 97.1805°W
Report Text: KTFP 230115Z AUTO 19004KT 7SM CLR 20/19 A2979 RMK AO2 LTG DSNT SW THRU NW T02040191
Loading
Personal Weather Stations






























Interactive Weather Map New forecast layout! Learn more

10-Day Weather Forecast

Advertisements
Track Severe Weather on mobile